This is the latest recevied weather packets stored in our database for station/object N0NAI-13. If no packets are shown the sender has not sent any weather packets the latest 10 day(s).
| Time | Temp. | Humidity | Pressure | Rain* | Wind** | Luminosity | Snow |
|---|---|---|---|---|---|---|---|
| 1777437317 | 7.78° C | 65% | 1018.5 hPa | 0 mm | - | - | - |
| 1777436732 | 7.78° C | 66% | 1018.6 hPa | 0 mm | - | - | - |
| 1777427722 | 10.56° C | 59% | 1018.1 hPa | 0 mm | - | - | - |
| 1777427125 | 10.56° C | 59% | 1018 hPa | 0 mm | - | - | - |
| 1777426522 | 10.56° C | 58% | 1017.9 hPa | 0 mm | - | - | - |
| 1777425316 | 11.11° C | 57% | 1017.6 hPa | 0 mm | - | - | - |
| 1777416324 | 16.11° C | 45% | 1016.1 hPa | 0 mm | - | - | - |
| 1777413917 | 16.67° C | 44% | 1016 hPa | 0 mm | - | - | - |
| 1777412723 | - | - | 1016.3 hPa | 0 mm | - | - | - |
| 1777412126 | - | - | 1016.4 hPa | 0 mm | - | - | - |
| 1777411529 | 15.56° C | 47% | 1016.3 hPa | 0 mm | - | - | - |
| 1777410316 | 16.11° C | 48% | 1016.7 hPa | 0 mm | - | - | - |
| 1777409720 | 16.67° C | 48% | 1016.9 hPa | 0 mm | - | - | - |
| 1777408525 | - | - | 1017.1 hPa | 0 mm | - | - | - |
| 1777407928 | 17.22° C | 51% | 1017.2 hPa | 0 mm | - | - | - |
| 1777407331 | 16.67° C | 50% | 1017.1 hPa | 0 mm | - | - | - |
| 1777406716 | 16.67° C | 51% | 1017.4 hPa | 0 mm | - | - | - |
| 1777406119 | 16.11° C | 49% | 1017.6 hPa | 0 mm | - | - | - |
| 1777404924 | 16.67° C | 48% | 1017.4 hPa | 0 mm | - | - | - |
| 1777404328 | 16.67° C | 51% | 1017.2 hPa | 0 mm | - | - | - |
| 1777403725 | 16.11° C | 54% | 1017.2 hPa | 0 mm | - | - | - |
| 1777402518 | 14.44° C | 53% | 1017.2 hPa | 0 mm | - | - | - |
| 1777401921 | 14.44° C | 54% | 1017.2 hPa | 0 mm | - | - | - |
| 1777401324 | 14.44° C | 55% | 1017.1 hPa | 0 mm | - | - | - |
| 1777400727 | 14.44° C | 54% | 1017 hPa | 0 mm | - | - | - |
* Rain latest hour (hover to see other rain measurements)
** Current wind speed in m/s (hover to see current wind gust speed)